sensor_id;sensor_type;location;lat;lon;timestamp;P1;durP1;ratioP1;P2;durP2;ratioP2
16314;SDS011;8266;52.150;4.768;2022-07-03T00:00:36;2.65;;;1.60;;
16314;SDS011;8266;52.150;4.768;2022-07-03T00:03:03;2.15;;;1.50;;
16314;SDS011;8266;52.150;4.768;2022-07-03T00:05:31;1.75;;;1.25;;
16314;SDS011;8266;52.150;4.768;2022-07-03T00:07:58;3.67;;;1.50;;
16314;SDS011;8266;52.150;4.768;2022-07-03T00:10:25;2.35;;;1.60;;
16314;SDS011;8266;52.150;4.768;2022-07-03T00:12:53;1.70;;;1.60;;
16314;SDS011;8266;52.150;4.768;2022-07-03T00:15:20;1.70;;;1.60;;
16314;SDS011;8266;52.150;4.768;2022-07-03T00:17:48;1.85;;;1.52;;
16314;SDS011;8266;52.150;4.768;2022-07-03T00:20:15;2.33;;;1.55;;
16314;SDS011;8266;52.150;4.768;2022-07-03T00:22:42;1.58;;;1.45;;
16314;SDS011;8266;52.150;4.768;2022-07-03T00:25:10;3.45;;;1.58;;
16314;SDS011;8266;52.150;4.768;2022-07-03T00:27:39;1.65;;;1.55;;
16314;SDS011;8266;52.150;4.768;2022-07-03T00:30:11;2.55;;;1.75;;
16314;SDS011;8266;52.150;4.768;2022-07-03T00:32:39;3.80;;;2.22;;
16314;SDS011;8266;52.150;4.768;2022-07-03T00:35:08;2.88;;;1.90;;
16314;SDS011;8266;52.150;4.768;2022-07-03T00:37:36;3.63;;;1.90;;
16314;SDS011;8266;52.150;4.768;2022-07-03T00:40:03;2.35;;;1.63;;
16314;SDS011;8266;52.150;4.768;2022-07-03T00:42:34;4.15;;;1.95;;
16314;SDS011;8266;52.150;4.768;2022-07-03T00:45:04;2.22;;;1.70;;
16314;SDS011;8266;52.150;4.768;2022-07-03T00:47:36;6.28;;;2.10;;
16314;SDS011;8266;52.150;4.768;2022-07-03T00:50:05;1.60;;;1.50;;
16314;SDS011;8266;52.150;4.768;2022-07-03T00:52:33;2.42;;;1.90;;
16314;SDS011;8266;52.150;4.768;2022-07-03T00:55:06;2.08;;;1.70;;
16314;SDS011;8266;52.150;4.768;2022-07-03T00:57:35;1.80;;;1.70;;
16314;SDS011;8266;52.150;4.768;2022-07-03T01:00:10;2.05;;;1.50;;
16314;SDS011;8266;52.150;4.768;2022-07-03T01:02:40;3.13;;;1.63;;
16314;SDS011;8266;52.150;4.768;2022-07-03T01:05:16;2.38;;;1.90;;
16314;SDS011;8266;52.150;4.768;2022-07-03T01:07:55;3.03;;;1.52;;
16314;SDS011;8266;52.150;4.768;2022-07-03T01:10:31;3.53;;;1.60;;
16314;SDS011;8266;52.150;4.768;2022-07-03T01:13:06;1.92;;;1.42;;
16314;SDS011;8266;52.150;4.768;2022-07-03T01:15:41;1.25;;;1.15;;
16314;SDS011;8266;52.150;4.768;2022-07-03T01:18:23;2.58;;;1.45;;
16314;SDS011;8266;52.150;4.768;2022-07-03T01:20:59;2.97;;;1.42;;
16314;SDS011;8266;52.150;4.768;2022-07-03T01:23:40;1.77;;;1.40;;
16314;SDS011;8266;52.150;4.768;2022-07-03T01:26:32;1.50;;;0.90;;
16314;SDS011;8266;52.150;4.768;2022-07-03T01:29:03;2.17;;;0.90;;
16314;SDS011;8266;52.150;4.768;2022-07-03T01:31:34;0.75;;;0.73;;
16314;SDS011;8266;52.150;4.768;2022-07-03T01:34:07;1.42;;;0.90;;
16314;SDS011;8266;52.150;4.768;2022-07-03T01:36:40;1.10;;;0.98;;
16314;SDS011;8266;52.150;4.768;2022-07-03T01:39:10;2.42;;;0.90;;
16314;SDS011;8266;52.150;4.768;2022-07-03T01:41:39;3.40;;;0.90;;
16314;SDS011;8266;52.150;4.768;2022-07-03T01:44:06;3.10;;;1.00;;
16314;SDS011;8266;52.150;4.768;2022-07-03T01:46:37;2.05;;;1.15;;
16314;SDS011;8266;52.150;4.768;2022-07-03T01:49:11;1.17;;;0.98;;
16314;SDS011;8266;52.150;4.768;2022-07-03T01:51:40;1.08;;;0.90;;
16314;SDS011;8266;52.150;4.768;2022-07-03T01:54:09;0.80;;;0.80;;
16314;SDS011;8266;52.150;4.768;2022-07-03T01:56:38;1.63;;;0.70;;
16314;SDS011;8266;52.150;4.768;2022-07-03T01:59:05;0.68;;;0.65;;
16314;SDS011;8266;52.150;4.768;2022-07-03T02:01:34;2.10;;;0.82;;
16314;SDS011;8266;52.150;4.768;2022-07-03T02:04:10;1.88;;;0.82;;
16314;SDS011;8266;52.150;4.768;2022-07-03T02:06:48;1.00;;;0.90;;
16314;SDS011;8266;52.150;4.768;2022-07-03T02:09:24;1.10;;;0.73;;
16314;SDS011;8266;52.150;4.768;2022-07-03T02:11:58;1.00;;;0.90;;
16314;SDS011;8266;52.150;4.768;2022-07-03T02:14:30;2.70;;;0.68;;
16314;SDS011;8266;52.150;4.768;2022-07-03T02:17:02;0.90;;;0.85;;
16314;SDS011;8266;52.150;4.768;2022-07-03T02:19:37;2.85;;;1.00;;
16314;SDS011;8266;52.150;4.768;2022-07-03T02:22:18;1.00;;;0.60;;
16314;SDS011;8266;52.150;4.768;2022-07-03T02:24:46;1.73;;;0.73;;
16314;SDS011;8266;52.150;4.768;2022-07-03T02:27:17;0.63;;;0.57;;
16314;SDS011;8266;52.150;4.768;2022-07-03T02:29:49;0.90;;;0.90;;
16314;SDS011;8266;52.150;4.768;2022-07-03T02:32:20;1.52;;;0.60;;
16314;SDS011;8266;52.150;4.768;2022-07-03T02:34:52;0.85;;;0.52;;
16314;SDS011;8266;52.150;4.768;2022-07-03T02:37:24;1.42;;;0.70;;
16314;SDS011;8266;52.150;4.768;2022-07-03T02:40:00;0.90;;;0.52;;
16314;SDS011;8266;52.150;4.768;2022-07-03T02:42:37;0.90;;;0.60;;
16314;SDS011;8266;52.150;4.768;2022-07-03T02:45:11;1.30;;;0.75;;
16314;SDS011;8266;52.150;4.768;2022-07-03T02:47:43;0.63;;;0.50;;
16314;SDS011;8266;52.150;4.768;2022-07-03T02:50:15;1.85;;;0.50;;
16314;SDS011;8266;52.150;4.768;2022-07-03T02:52:49;0.75;;;0.57;;
16314;SDS011;8266;52.150;4.768;2022-07-03T02:55:39;1.45;;;0.68;;
16314;SDS011;8266;52.150;4.768;2022-07-03T02:58:31;0.90;;;0.45;;
16314;SDS011;8266;52.150;4.768;2022-07-03T03:01:09;1.00;;;0.50;;
16314;SDS011;8266;52.150;4.768;2022-07-03T03:03:41;1.27;;;0.40;;
16314;SDS011;8266;52.150;4.768;2022-07-03T03:06:18;1.85;;;0.40;;
16314;SDS011;8266;52.150;4.768;2022-07-03T03:08:48;1.15;;;0.40;;
16314;SDS011;8266;52.150;4.768;2022-07-03T03:11:29;2.97;;;0.55;;
16314;SDS011;8266;52.150;4.768;2022-07-03T03:14:07;0.93;;;0.43;;
16314;SDS011;8266;52.150;4.768;2022-07-03T03:16:40;1.25;;;0.50;;
16314;SDS011;8266;52.150;4.768;2022-07-03T03:19:14;1.10;;;0.40;;
16314;SDS011;8266;52.150;4.768;2022-07-03T03:21:52;0.98;;;0.50;;
16314;SDS011;8266;52.150;4.768;2022-07-03T03:24:25;1.75;;;0.52;;
16314;SDS011;8266;52.150;4.768;2022-07-03T03:26:53;1.20;;;0.43;;
16314;SDS011;8266;52.150;4.768;2022-07-03T03:29:22;1.75;;;0.50;;
16314;SDS011;8266;52.150;4.768;2022-07-03T03:31:49;0.93;;;0.30;;
16314;SDS011;8266;52.150;4.768;2022-07-03T03:34:16;1.15;;;0.38;;
16314;SDS011;8266;52.150;4.768;2022-07-03T03:36:47;1.73;;;0.70;;
16314;SDS011;8266;52.150;4.768;2022-07-03T03:39:15;1.15;;;0.57;;
16314;SDS011;8266;52.150;4.768;2022-07-03T03:41:44;2.60;;;0.50;;
16314;SDS011;8266;52.150;4.768;2022-07-03T03:44:12;1.98;;;0.57;;
16314;SDS011;8266;52.150;4.768;2022-07-03T03:46:40;0.75;;;0.40;;
16314;SDS011;8266;52.150;4.768;2022-07-03T03:49:08;1.05;;;0.50;;
16314;SDS011;8266;52.150;4.768;2022-07-03T03:51:39;2.40;;;0.70;;
16314;SDS011;8266;52.150;4.768;2022-07-03T03:54:08;0.65;;;0.40;;
16314;SDS011;8266;52.150;4.768;2022-07-03T03:56:36;1.00;;;0.40;;
16314;SDS011;8266;52.150;4.768;2022-07-03T03:59:03;1.33;;;0.40;;
16314;SDS011;8266;52.150;4.768;2022-07-03T04:01:33;2.90;;;0.60;;
16314;SDS011;8266;52.150;4.768;2022-07-03T04:04:04;1.52;;;0.60;;
16314;SDS011;8266;52.150;4.768;2022-07-03T04:06:37;1.40;;;0.50;;
16314;SDS011;8266;52.150;4.768;2022-07-03T04:09:04;0.80;;;0.40;;
16314;SDS011;8266;52.150;4.768;2022-07-03T04:11:33;2.92;;;0.90;;
16314;SDS011;8266;52.150;4.768;2022-07-03T04:14:03;0.60;;;0.55;;
16314;SDS011;8266;52.150;4.768;2022-07-03T04:16:30;0.82;;;0.50;;
16314;SDS011;8266;52.150;4.768;2022-07-03T04:18:59;1.85;;;1.13;;
16314;SDS011;8266;52.150;4.768;2022-07-03T04:21:28;0.98;;;0.55;;
16314;SDS011;8266;52.150;4.768;2022-07-03T04:23:58;0.90;;;0.60;;
16314;SDS011;8266;52.150;4.768;2022-07-03T04:26:27;3.30;;;0.70;;
16314;SDS011;8266;52.150;4.768;2022-07-03T04:28:57;1.80;;;0.60;;
16314;SDS011;8266;52.150;4.768;2022-07-03T04:31:24;1.88;;;0.50;;
16314;SDS011;8266;52.150;4.768;2022-07-03T04:33:52;1.35;;;0.60;;
16314;SDS011;8266;52.150;4.768;2022-07-03T04:36:20;2.05;;;0.60;;
16314;SDS011;8266;52.150;4.768;2022-07-03T04:38:49;1.38;;;0.47;;
16314;SDS011;8266;52.150;4.768;2022-07-03T04:41:16;2.00;;;0.60;;
16314;SDS011;8266;52.150;4.768;2022-07-03T04:43:43;1.90;;;0.73;;
16314;SDS011;8266;52.150;4.768;2022-07-03T04:46:10;2.25;;;0.60;;
16314;SDS011;8266;52.150;4.768;2022-07-03T04:48:38;1.02;;;0.68;;
16314;SDS011;8266;52.150;4.768;2022-07-03T04:51:05;2.45;;;0.80;;
16314;SDS011;8266;52.150;4.768;2022-07-03T04:53:32;2.00;;;0.68;;
16314;SDS011;8266;52.150;4.768;2022-07-03T04:56:00;0.45;;;0.40;;
16314;SDS011;8266;52.150;4.768;2022-07-03T04:58:27;1.02;;;0.50;;
16314;SDS011;8266;52.150;4.768;2022-07-03T05:00:55;1.00;;;0.50;;
16314;SDS011;8266;52.150;4.768;2022-07-03T05:03:22;1.02;;;0.50;;
16314;SDS011;8266;52.150;4.768;2022-07-03T05:05:49;1.42;;;0.60;;
16314;SDS011;8266;52.150;4.768;2022-07-03T05:08:17;1.52;;;0.88;;
16314;SDS011;8266;52.150;4.768;2022-07-03T05:10:45;1.70;;;0.57;;
16314;SDS011;8266;52.150;4.768;2022-07-03T05:13:14;2.60;;;0.85;;
16314;SDS011;8266;52.150;4.768;2022-07-03T05:15:41;1.58;;;0.70;;
16314;SDS011;8266;52.150;4.768;2022-07-03T05:18:08;1.65;;;0.95;;
16314;SDS011;8266;52.150;4.768;2022-07-03T05:20:35;2.20;;;0.70;;
16314;SDS011;8266;52.150;4.768;2022-07-03T05:23:02;1.90;;;0.80;;
16314;SDS011;8266;52.150;4.768;2022-07-03T05:25:30;3.63;;;1.23;;
16314;SDS011;8266;52.150;4.768;2022-07-03T05:27:58;3.10;;;0.93;;
16314;SDS011;8266;52.150;4.768;2022-07-03T05:30:27;1.58;;;0.90;;
16314;SDS011;8266;52.150;4.768;2022-07-03T05:32:54;2.15;;;0.60;;
16314;SDS011;8266;52.150;4.768;2022-07-03T05:35:21;2.45;;;0.70;;
16314;SDS011;8266;52.150;4.768;2022-07-03T05:37:49;2.67;;;0.80;;
16314;SDS011;8266;52.150;4.768;2022-07-03T05:40:16;2.50;;;0.90;;
16314;SDS011;8266;52.150;4.768;2022-07-03T05:42:43;1.55;;;0.75;;
16314;SDS011;8266;52.150;4.768;2022-07-03T05:45:10;3.17;;;0.75;;
16314;SDS011;8266;52.150;4.768;2022-07-03T05:47:39;1.42;;;1.10;;
16314;SDS011;8266;52.150;4.768;2022-07-03T05:50:07;2.08;;;0.80;;
16314;SDS011;8266;52.150;4.768;2022-07-03T05:52:35;2.15;;;0.60;;
16314;SDS011;8266;52.150;4.768;2022-07-03T05:55:03;2.67;;;0.90;;
16314;SDS011;8266;52.150;4.768;2022-07-03T05:57:30;4.82;;;1.02;;
16314;SDS011;8266;52.150;4.768;2022-07-03T05:59:58;2.65;;;1.30;;
16314;SDS011;8266;52.150;4.768;2022-07-03T06:02:25;7.07;;;1.30;;
16314;SDS011;8266;52.150;4.768;2022-07-03T06:04:53;4.20;;;0.90;;
16314;SDS011;8266;52.150;4.768;2022-07-03T06:07:20;4.85;;;1.13;;
16314;SDS011;8266;52.150;4.768;2022-07-03T06:09:48;3.60;;;0.90;;
16314;SDS011;8266;52.150;4.768;2022-07-03T06:12:15;3.13;;;0.88;;
16314;SDS011;8266;52.150;4.768;2022-07-03T06:14:45;2.90;;;0.98;;
16314;SDS011;8266;52.150;4.768;2022-07-03T06:17:12;3.17;;;0.80;;
16314;SDS011;8266;52.150;4.768;2022-07-03T06:19:40;2.05;;;0.70;;
16314;SDS011;8266;52.150;4.768;2022-07-03T06:22:08;3.28;;;1.17;;
16314;SDS011;8266;52.150;4.768;2022-07-03T06:24:36;2.28;;;0.95;;
16314;SDS011;8266;52.150;4.768;2022-07-03T06:27:05;3.30;;;1.20;;
16314;SDS011;8266;52.150;4.768;2022-07-03T06:29:32;3.35;;;1.00;;
16314;SDS011;8266;52.150;4.768;2022-07-03T06:31:59;1.98;;;0.85;;
16314;SDS011;8266;52.150;4.768;2022-07-03T06:34:33;4.78;;;0.80;;
16314;SDS011;8266;52.150;4.768;2022-07-03T06:37:01;2.17;;;0.80;;
16314;SDS011;8266;52.150;4.768;2022-07-03T06:39:31;2.95;;;0.82;;
16314;SDS011;8266;52.150;4.768;2022-07-03T06:41:58;2.58;;;0.80;;
16314;SDS011;8266;52.150;4.768;2022-07-03T06:44:28;2.72;;;0.80;;
16314;SDS011;8266;52.150;4.768;2022-07-03T06:46:56;1.92;;;1.05;;
16314;SDS011;8266;52.150;4.768;2022-07-03T06:49:23;2.42;;;0.68;;
16314;SDS011;8266;52.150;4.768;2022-07-03T06:51:50;1.52;;;1.00;;
16314;SDS011;8266;52.150;4.768;2022-07-03T06:54:17;3.00;;;0.95;;
16314;SDS011;8266;52.150;4.768;2022-07-03T06:56:46;1.80;;;0.82;;
16314;SDS011;8266;52.150;4.768;2022-07-03T06:59:13;2.25;;;0.85;;
16314;SDS011;8266;52.150;4.768;2022-07-03T07:01:40;1.75;;;0.73;;
16314;SDS011;8266;52.150;4.768;2022-07-03T07:04:07;3.17;;;0.80;;
16314;SDS011;8266;52.150;4.768;2022-07-03T07:06:34;1.08;;;0.55;;
16314;SDS011;8266;52.150;4.768;2022-07-03T07:09:02;2.45;;;0.80;;
16314;SDS011;8266;52.150;4.768;2022-07-03T07:11:33;0.82;;;0.50;;
16314;SDS011;8266;52.150;4.768;2022-07-03T07:14:01;2.15;;;0.60;;
16314;SDS011;8266;52.150;4.768;2022-07-03T07:16:28;2.17;;;0.90;;
16314;SDS011;8266;52.150;4.768;2022-07-03T07:18:57;1.92;;;0.90;;
16314;SDS011;8266;52.150;4.768;2022-07-03T07:21:24;0.75;;;0.60;;
16314;SDS011;8266;52.150;4.768;2022-07-03T07:23:51;2.05;;;0.85;;
16314;SDS011;8266;52.150;4.768;2022-07-03T07:26:19;2.05;;;0.88;;
16314;SDS011;8266;52.150;4.768;2022-07-03T07:28:46;2.13;;;0.80;;
16314;SDS011;8266;52.150;4.768;2022-07-03T07:31:14;2.85;;;1.20;;
16314;SDS011;8266;52.150;4.768;2022-07-03T07:33:41;1.98;;;0.70;;
16314;SDS011;8266;52.150;4.768;2022-07-03T07:36:08;2.90;;;0.90;;
16314;SDS011;8266;52.150;4.768;2022-07-03T07:38:35;2.22;;;0.73;;
16314;SDS011;8266;52.150;4.768;2022-07-03T07:41:02;3.35;;;0.85;;
16314;SDS011;8266;52.150;4.768;2022-07-03T07:43:30;1.58;;;0.70;;
16314;SDS011;8266;52.150;4.768;2022-07-03T07:45:57;4.65;;;0.93;;
16314;SDS011;8266;52.150;4.768;2022-07-03T07:48:26;1.63;;;0.73;;
16314;SDS011;8266;52.150;4.768;2022-07-03T07:50:53;3.75;;;0.93;;
16314;SDS011;8266;52.150;4.768;2022-07-03T07:53:20;4.32;;;0.90;;
16314;SDS011;8266;52.150;4.768;2022-07-03T07:55:47;2.15;;;0.75;;
16314;SDS011;8266;52.150;4.768;2022-07-03T07:58:14;3.70;;;1.25;;
16314;SDS011;8266;52.150;4.768;2022-07-03T08:00:42;2.78;;;0.80;;
16314;SDS011;8266;52.150;4.768;2022-07-03T08:03:22;6.20;;;0.70;;
16314;SDS011;8266;52.150;4.768;2022-07-03T08:06:11;3.10;;;0.90;;
16314;SDS011;8266;52.150;4.768;2022-07-03T08:08:41;1.88;;;0.80;;
16314;SDS011;8266;52.150;4.768;2022-07-03T08:11:08;2.25;;;0.80;;
16314;SDS011;8266;52.150;4.768;2022-07-03T08:13:35;1.42;;;0.88;;
16314;SDS011;8266;52.150;4.768;2022-07-03T08:16:02;1.60;;;0.95;;
16314;SDS011;8266;52.150;4.768;2022-07-03T08:18:31;1.80;;;0.70;;
16314;SDS011;8266;52.150;4.768;2022-07-03T08:20:58;1.65;;;0.85;;
16314;SDS011;8266;52.150;4.768;2022-07-03T08:23:29;1.27;;;0.80;;
16314;SDS011;8266;52.150;4.768;2022-07-03T08:25:57;1.73;;;0.80;;
16314;SDS011;8266;52.150;4.768;2022-07-03T08:28:24;1.77;;;0.80;;
16314;SDS011;8266;52.150;4.768;2022-07-03T08:30:51;2.17;;;0.90;;
16314;SDS011;8266;52.150;4.768;2022-07-03T08:33:18;1.35;;;0.60;;
16314;SDS011;8266;52.150;4.768;2022-07-03T08:35:45;1.17;;;0.70;;
16314;SDS011;8266;52.150;4.768;2022-07-03T08:38:12;2.30;;;0.68;;
16314;SDS011;8266;52.150;4.768;2022-07-03T08:40:41;1.65;;;0.52;;
16314;SDS011;8266;52.150;4.768;2022-07-03T08:43:13;1.75;;;0.70;;
16314;SDS011;8266;52.150;4.768;2022-07-03T08:45:41;1.50;;;0.80;;
16314;SDS011;8266;52.150;4.768;2022-07-03T08:48:09;2.80;;;0.73;;
16314;SDS011;8266;52.150;4.768;2022-07-03T08:50:41;2.17;;;0.68;;
16314;SDS011;8266;52.150;4.768;2022-07-03T08:53:10;1.48;;;0.60;;
16314;SDS011;8266;52.150;4.768;2022-07-03T08:55:37;1.27;;;0.75;;
16314;SDS011;8266;52.150;4.768;2022-07-03T08:58:05;2.05;;;0.60;;
16314;SDS011;8266;52.150;4.768;2022-07-03T09:00:39;1.50;;;0.63;;
16314;SDS011;8266;52.150;4.768;2022-07-03T09:03:09;2.33;;;0.80;;
16314;SDS011;8266;52.150;4.768;2022-07-03T09:05:37;1.00;;;0.60;;
16314;SDS011;8266;52.150;4.768;2022-07-03T09:08:05;1.52;;;0.60;;
16314;SDS011;8266;52.150;4.768;2022-07-03T09:10:33;1.92;;;0.80;;
16314;SDS011;8266;52.150;4.768;2022-07-03T09:13:00;1.63;;;0.70;;
16314;SDS011;8266;52.150;4.768;2022-07-03T09:15:29;1.13;;;0.68;;
16314;SDS011;8266;52.150;4.768;2022-07-03T09:17:59;0.50;;;0.40;;
16314;SDS011;8266;52.150;4.768;2022-07-03T09:20:34;1.40;;;0.60;;
16314;SDS011;8266;52.150;4.768;2022-07-03T09:23:09;1.15;;;0.50;;
16314;SDS011;8266;52.150;4.768;2022-07-03T09:28:21;0.60;;;0.40;;
16314;SDS011;8266;52.150;4.768;2022-07-03T09:30:57;1.80;;;0.80;;
16314;SDS011;8266;52.150;4.768;2022-07-03T09:33:27;1.80;;;0.60;;
16314;SDS011;8266;52.150;4.768;2022-07-03T09:35:55;1.75;;;0.68;;
16314;SDS011;8266;52.150;4.768;2022-07-03T09:38:22;2.15;;;0.40;;
16314;SDS011;8266;52.150;4.768;2022-07-03T09:40:50;1.10;;;0.50;;
16314;SDS011;8266;52.150;4.768;2022-07-03T09:43:23;2.28;;;1.20;;
16314;SDS011;8266;52.150;4.768;2022-07-03T09:45:52;0.68;;;0.60;;
16314;SDS011;8266;52.150;4.768;2022-07-03T09:48:23;1.15;;;0.60;;
16314;SDS011;8266;52.150;4.768;2022-07-03T09:51:07;0.43;;;0.30;;
16314;SDS011;8266;52.150;4.768;2022-07-03T09:53:48;1.20;;;0.50;;
16314;SDS011;8266;52.150;4.768;2022-07-03T09:56:21;2.13;;;0.50;;
16314;SDS011;8266;52.150;4.768;2022-07-03T09:58:59;2.20;;;0.50;;
16314;SDS011;8266;52.150;4.768;2022-07-03T10:01:37;2.22;;;0.47;;
16314;SDS011;8266;52.150;4.768;2022-07-03T10:04:11;1.63;;;0.85;;
16314;SDS011;8266;52.150;4.768;2022-07-03T10:06:49;1.15;;;0.70;;
16314;SDS011;8266;52.150;4.768;2022-07-03T10:09:18;2.75;;;0.73;;
16314;SDS011;8266;52.150;4.768;2022-07-03T10:11:46;1.45;;;0.50;;
16314;SDS011;8266;52.150;4.768;2022-07-03T10:14:15;0.68;;;0.30;;
16314;SDS011;8266;52.150;4.768;2022-07-03T10:16:43;1.15;;;0.55;;
16314;SDS011;8266;52.150;4.768;2022-07-03T10:19:13;1.52;;;0.75;;
16314;SDS011;8266;52.150;4.768;2022-07-03T10:21:50;0.60;;;0.50;;
16314;SDS011;8266;52.150;4.768;2022-07-03T10:24:20;1.05;;;0.40;;
16314;SDS011;8266;52.150;4.768;2022-07-03T10:26:51;0.68;;;0.40;;
16314;SDS011;8266;52.150;4.768;2022-07-03T10:29:20;1.95;;;0.60;;
16314;SDS011;8266;52.150;4.768;2022-07-03T10:31:51;1.38;;;0.52;;
16314;SDS011;8266;52.150;4.768;2022-07-03T10:34:21;1.27;;;0.65;;
16314;SDS011;8266;52.150;4.768;2022-07-03T10:36:52;1.55;;;0.47;;
16314;SDS011;8266;52.150;4.768;2022-07-03T10:39:31;1.92;;;0.47;;
16314;SDS011;8266;52.150;4.768;2022-07-03T10:42:03;1.05;;;0.45;;
16314;SDS011;8266;52.150;4.768;2022-07-03T10:44:49;1.45;;;0.65;;
16314;SDS011;8266;52.150;4.768;2022-07-03T10:47:36;1.42;;;0.60;;
16314;SDS011;8266;52.150;4.768;2022-07-03T10:50:07;0.95;;;0.50;;
16314;SDS011;8266;52.150;4.768;2022-07-03T10:52:37;1.85;;;0.40;;
16314;SDS011;8266;52.150;4.768;2022-07-03T10:55:05;0.77;;;0.45;;
16314;SDS011;8266;52.150;4.768;2022-07-03T10:57:33;0.52;;;0.40;;
16314;SDS011;8266;52.150;4.768;2022-07-03T11:00:03;1.50;;;0.73;;
16314;SDS011;8266;52.150;4.768;2022-07-03T11:02:44;0.65;;;0.47;;
16314;SDS011;8266;52.150;4.768;2022-07-03T11:11:23;1.45;;;0.57;;
16314;SDS011;8266;52.150;4.768;2022-07-03T11:14:18;0.35;;;0.30;;
16314;SDS011;8266;52.150;4.768;2022-07-03T11:16:46;0.30;;;0.30;;
16314;SDS011;8266;52.150;4.768;2022-07-03T11:19:13;0.75;;;0.50;;
16314;SDS011;8266;52.150;4.768;2022-07-03T11:21:42;0.82;;;0.60;;
16314;SDS011;8266;52.150;4.768;2022-07-03T11:27:11;1.27;;;0.30;;
16314;SDS011;8266;52.150;4.768;2022-07-03T11:29:39;0.70;;;0.30;;
16314;SDS011;8266;52.150;4.768;2022-07-03T11:38:19;0.50;;;0.40;;
16314;SDS011;8266;52.150;4.768;2022-07-03T11:40:49;0.57;;;0.40;;
16314;SDS011;8266;52.150;4.768;2022-07-03T11:43:17;0.30;;;0.30;;
16314;SDS011;8266;52.150;4.768;2022-07-03T11:45:45;2.70;;;0.60;;
16314;SDS011;8266;52.150;4.768;2022-07-03T11:48:14;0.80;;;0.40;;
16314;SDS011;8266;52.150;4.768;2022-07-03T11:50:43;0.45;;;0.30;;
16314;SDS011;8266;52.150;4.768;2022-07-03T11:53:24;0.30;;;0.20;;
16314;SDS011;8266;52.150;4.768;2022-07-03T11:55:54;0.93;;;0.40;;
16314;SDS011;8266;52.150;4.768;2022-07-03T11:58:22;0.80;;;0.50;;
16314;SDS011;8266;52.150;4.768;2022-07-03T12:00:50;1.23;;;0.60;;
16314;SDS011;8266;52.150;4.768;2022-07-03T12:03:25;1.92;;;0.40;;
16314;SDS011;8266;52.150;4.768;2022-07-03T12:05:54;2.25;;;0.68;;
16314;SDS011;8266;52.150;4.768;2022-07-03T12:08:31;1.27;;;0.50;;
16314;SDS011;8266;52.150;4.768;2022-07-03T12:11:01;0.98;;;0.50;;
16314;SDS011;8266;52.150;4.768;2022-07-03T12:13:35;0.68;;;0.43;;
16314;SDS011;8266;52.150;4.768;2022-07-03T12:16:07;1.25;;;0.40;;
16314;SDS011;8266;52.150;4.768;2022-07-03T12:18:42;10.57;;;1.50;;
16314;SDS011;8266;52.150;4.768;2022-07-03T12:21:10;1.40;;;0.40;;
16314;SDS011;8266;52.150;4.768;2022-07-03T12:23:47;0.65;;;0.30;;
16314;SDS011;8266;52.150;4.768;2022-07-03T12:26:26;0.70;;;0.52;;
16314;SDS011;8266;52.150;4.768;2022-07-03T12:28:55;0.95;;;0.60;;
16314;SDS011;8266;52.150;4.768;2022-07-03T12:31:23;1.20;;;0.47;;
16314;SDS011;8266;52.150;4.768;2022-07-03T12:33:51;0.90;;;0.50;;
16314;SDS011;8266;52.150;4.768;2022-07-03T12:36:18;0.73;;;0.47;;
16314;SDS011;8266;52.150;4.768;2022-07-03T12:38:48;1.80;;;0.50;;
16314;SDS011;8266;52.150;4.768;2022-07-03T12:41:17;1.25;;;0.70;;
16314;SDS011;8266;52.150;4.768;2022-07-03T12:43:46;0.73;;;0.50;;
16314;SDS011;8266;52.150;4.768;2022-07-03T12:46:17;1.42;;;0.40;;
16314;SDS011;8266;52.150;4.768;2022-07-03T12:48:48;2.15;;;0.80;;
16314;SDS011;8266;52.150;4.768;2022-07-03T12:51:17;1.20;;;0.90;;
16314;SDS011;8266;52.150;4.768;2022-07-03T12:54:05;1.33;;;0.65;;
16314;SDS011;8266;52.150;4.768;2022-07-03T12:56:32;1.10;;;0.52;;
16314;SDS011;8266;52.150;4.768;2022-07-03T12:59:00;2.13;;;0.68;;
16314;SDS011;8266;52.150;4.768;2022-07-03T13:01:44;2.22;;;0.70;;
16314;SDS011;8266;52.150;4.768;2022-07-03T13:04:12;2.22;;;1.00;;
16314;SDS011;8266;52.150;4.768;2022-07-03T13:06:40;2.72;;;0.82;;
16314;SDS011;8266;52.150;4.768;2022-07-03T13:09:11;1.95;;;0.85;;
16314;SDS011;8266;52.150;4.768;2022-07-03T13:11:39;1.38;;;0.50;;
16314;SDS011;8266;52.150;4.768;2022-07-03T13:14:09;2.28;;;0.50;;
16314;SDS011;8266;52.150;4.768;2022-07-03T13:16:41;1.20;;;0.50;;
16314;SDS011;8266;52.150;4.768;2022-07-03T13:19:10;0.70;;;0.32;;
16314;SDS011;8266;52.150;4.768;2022-07-03T13:21:38;2.63;;;0.80;;
16314;SDS011;8266;52.150;4.768;2022-07-03T13:24:05;2.28;;;0.52;;
16314;SDS011;8266;52.150;4.768;2022-07-03T13:26:34;1.75;;;0.47;;
16314;SDS011;8266;52.150;4.768;2022-07-03T13:29:02;1.83;;;0.63;;
16314;SDS011;8266;52.150;4.768;2022-07-03T13:31:29;1.33;;;0.50;;
16314;SDS011;8266;52.150;4.768;2022-07-03T13:33:59;0.80;;;0.40;;
16314;SDS011;8266;52.150;4.768;2022-07-03T13:36:33;1.42;;;0.57;;
16314;SDS011;8266;52.150;4.768;2022-07-03T13:39:00;1.05;;;0.47;;
16314;SDS011;8266;52.150;4.768;2022-07-03T13:41:28;2.47;;;0.60;;
16314;SDS011;8266;52.150;4.768;2022-07-03T13:43:57;2.42;;;0.60;;
16314;SDS011;8266;52.150;4.768;2022-07-03T13:46:24;2.15;;;0.82;;
16314;SDS011;8266;52.150;4.768;2022-07-03T13:48:51;0.98;;;0.60;;
16314;SDS011;8266;52.150;4.768;2022-07-03T13:51:19;0.90;;;0.65;;
16314;SDS011;8266;52.150;4.768;2022-07-03T13:53:47;2.13;;;0.75;;
16314;SDS011;8266;52.150;4.768;2022-07-03T13:56:14;2.53;;;0.57;;
16314;SDS011;8266;52.150;4.768;2022-07-03T13:58:41;1.13;;;0.73;;
16314;SDS011;8266;52.150;4.768;2022-07-03T14:01:10;1.55;;;0.50;;
16314;SDS011;8266;52.150;4.768;2022-07-03T14:03:37;1.83;;;0.82;;
16314;SDS011;8266;52.150;4.768;2022-07-03T14:06:04;1.70;;;0.60;;
16314;SDS011;8266;52.150;4.768;2022-07-03T14:08:31;1.10;;;0.70;;
16314;SDS011;8266;52.150;4.768;2022-07-03T14:10:58;1.52;;;0.57;;
16314;SDS011;8266;52.150;4.768;2022-07-03T14:13:26;1.42;;;0.70;;
16314;SDS011;8266;52.150;4.768;2022-07-03T14:15:53;2.15;;;0.63;;
16314;SDS011;8266;52.150;4.768;2022-07-03T14:18:21;2.47;;;0.47;;
16314;SDS011;8266;52.150;4.768;2022-07-03T14:20:48;1.42;;;0.63;;
16314;SDS011;8266;52.150;4.768;2022-07-03T14:23:15;1.95;;;0.70;;
16314;SDS011;8266;52.150;4.768;2022-07-03T14:25:43;1.73;;;0.57;;
16314;SDS011;8266;52.150;4.768;2022-07-03T14:28:10;1.30;;;0.60;;
16314;SDS011;8266;52.150;4.768;2022-07-03T14:30:54;1.88;;;0.60;;
16314;SDS011;8266;52.150;4.768;2022-07-03T14:33:40;1.05;;;0.63;;
16314;SDS011;8266;52.150;4.768;2022-07-03T14:36:07;1.63;;;0.70;;
16314;SDS011;8266;52.150;4.768;2022-07-03T14:38:34;0.93;;;0.60;;
16314;SDS011;8266;52.150;4.768;2022-07-03T14:41:01;1.85;;;0.45;;
16314;SDS011;8266;52.150;4.768;2022-07-03T14:43:28;2.53;;;0.80;;
16314;SDS011;8266;52.150;4.768;2022-07-03T14:45:56;1.35;;;0.73;;
16314;SDS011;8266;52.150;4.768;2022-07-03T14:48:23;4.82;;;0.90;;
16314;SDS011;8266;52.150;4.768;2022-07-03T14:50:52;3.25;;;0.60;;
16314;SDS011;8266;52.150;4.768;2022-07-03T14:53:20;2.83;;;0.55;;
16314;SDS011;8266;52.150;4.768;2022-07-03T14:55:48;1.63;;;0.75;;
16314;SDS011;8266;52.150;4.768;2022-07-03T14:58:18;2.08;;;0.70;;
16314;SDS011;8266;52.150;4.768;2022-07-03T15:00:48;1.58;;;0.65;;
16314;SDS011;8266;52.150;4.768;2022-07-03T15:03:18;2.55;;;0.95;;
16314;SDS011;8266;52.150;4.768;2022-07-03T15:05:52;2.80;;;0.80;;
16314;SDS011;8266;52.150;4.768;2022-07-03T15:08:33;1.13;;;0.63;;
16314;SDS011;8266;52.150;4.768;2022-07-03T15:11:12;3.60;;;1.10;;
16314;SDS011;8266;52.150;4.768;2022-07-03T15:14:02;2.40;;;1.00;;
16314;SDS011;8266;52.150;4.768;2022-07-03T15:16:31;2.33;;;0.77;;
16314;SDS011;8266;52.150;4.768;2022-07-03T15:19:06;1.70;;;0.88;;
16314;SDS011;8266;52.150;4.768;2022-07-03T15:21:37;1.02;;;0.63;;
16314;SDS011;8266;52.150;4.768;2022-07-03T15:24:06;1.08;;;0.47;;
16314;SDS011;8266;52.150;4.768;2022-07-03T15:26:33;2.00;;;0.85;;
16314;SDS011;8266;52.150;4.768;2022-07-03T15:29:02;0.75;;;0.40;;
16314;SDS011;8266;52.150;4.768;2022-07-03T15:31:34;3.35;;;0.80;;
16314;SDS011;8266;52.150;4.768;2022-07-03T15:34:02;2.70;;;0.70;;
16314;SDS011;8266;52.150;4.768;2022-07-03T15:36:35;1.13;;;0.57;;